createdAt,value
2023-02-07T00:01:25.572Z,15.10
2023-02-07T00:03:55.307Z,20.10
2023-02-07T00:06:28.733Z,21.20
2023-02-07T00:08:58.633Z,19.20
2023-02-07T00:11:26.939Z,21.60
2023-02-07T00:13:56.204Z,20.40
2023-02-07T00:16:26.311Z,20.40
2023-02-07T00:18:54.922Z,19.80
2023-02-07T00:21:24.016Z,20.50
2023-02-07T00:23:52.845Z,17.60
2023-02-07T00:26:24.362Z,14.40
2023-02-07T00:28:53.456Z,18.90
2023-02-07T00:31:26.424Z,21.50
2023-02-07T00:34:01.815Z,20.20
2023-02-07T00:36:32.304Z,17.20
2023-02-07T00:39:02.237Z,15.60
2023-02-07T00:41:31.931Z,18.90
2023-02-07T00:44:01.235Z,16.70
2023-02-07T00:46:31.134Z,13.60
2023-02-07T00:49:01.344Z,16.00
2023-02-07T00:51:30.255Z,16.60
2023-02-07T00:53:59.838Z,20.30
2023-02-07T00:56:29.282Z,24.30
2023-02-07T00:58:59.489Z,23.50
2023-02-07T01:01:27.759Z,13.90
2023-02-07T01:03:58.548Z,14.70
2023-02-07T01:06:28.128Z,16.10
2023-02-07T01:08:59.351Z,14.60
2023-02-07T01:11:29.916Z,21.30
2023-02-07T01:14:00.734Z,20.90
2023-02-07T01:16:31.417Z,21.10
2023-02-07T01:19:01.547Z,24.50
2023-02-07T01:21:30.243Z,21.30
2023-02-07T01:23:58.789Z,21.60
2023-02-07T01:26:26.928Z,20.60
2023-02-07T01:28:55.675Z,18.90
2023-02-07T01:31:23.930Z,21.30
2023-02-07T01:33:59.096Z,25.10
2023-02-07T01:36:28.403Z,25.40
2023-02-07T01:38:58.809Z,23.60
2023-02-07T01:41:28.496Z,26.60
2023-02-07T01:43:58.848Z,24.50
2023-02-07T01:46:27.438Z,22.90
2023-02-07T01:48:57.759Z,20.20
2023-02-07T01:51:25.726Z,19.70
2023-02-07T01:53:56.509Z,15.90
2023-02-07T01:56:31.515Z,16.60
2023-02-07T01:59:02.454Z,18.80
2023-02-07T02:01:32.657Z,22.80
2023-02-07T02:04:00.653Z,27.10
2023-02-07T02:06:30.653Z,22.20
2023-02-07T02:09:00.152Z,19.50
2023-02-07T02:12:06.856Z,19.50
2023-02-07T02:15:03.116Z,16.30
2023-02-07T02:18:02.915Z,17.60
2023-02-07T02:20:54.158Z,20.70
2023-02-07T02:23:39.876Z,17.10
2023-02-07T02:26:20.316Z,17.60
2023-02-07T02:29:13.292Z,25.40
2023-02-07T02:32:14.812Z,28.10
2023-02-07T02:34:54.100Z,22.70
2023-02-07T02:37:29.786Z,22.60
2023-02-07T02:40:22.584Z,22.20
2023-02-07T02:42:59.133Z,22.70
2023-02-07T02:45:36.902Z,25.60
2023-02-07T02:48:05.779Z,20.90
2023-02-07T02:50:34.417Z,20.20
2023-02-07T02:53:02.551Z,20.00
2023-02-07T02:56:04.371Z,20.90
2023-02-07T02:58:54.930Z,23.60
2023-02-07T03:01:56.312Z,28.20
2023-02-07T03:04:46.140Z,30.40
2023-02-07T03:07:21.814Z,22.40
2023-02-07T03:10:03.048Z,25.50
2023-02-07T03:12:55.940Z,26.20
2023-02-07T03:15:37.923Z,24.00
2023-02-07T03:18:14.413Z,22.20
2023-02-07T03:20:47.974Z,21.80
2023-02-07T03:23:16.711Z,21.10
2023-02-07T03:25:44.646Z,23.00
2023-02-07T03:28:12.695Z,27.20
2023-02-07T03:30:43.117Z,26.50
2023-02-07T03:33:12.128Z,31.10
2023-02-07T03:35:53.506Z,28.20
2023-02-07T03:38:21.948Z,28.40
2023-02-07T03:40:53.667Z,31.40
2023-02-07T03:43:26.852Z,26.90
2023-02-07T03:45:55.645Z,28.80
2023-02-07T03:48:24.348Z,25.30
2023-02-07T03:50:53.091Z,26.30
2023-02-07T03:53:21.132Z,24.90
2023-02-07T03:55:49.261Z,26.50
2023-02-07T03:58:17.270Z,23.20
2023-02-07T04:00:45.450Z,22.10
2023-02-07T04:03:13.849Z,28.30
2023-02-07T04:05:43.950Z,32.20
2023-02-07T04:08:12.214Z,30.20
2023-02-07T04:10:40.406Z,26.80
2023-02-07T04:13:13.283Z,25.80
2023-02-07T04:15:41.426Z,27.40
2023-02-07T04:18:10.041Z,26.50
2023-02-07T04:20:38.705Z,25.20
2023-02-07T04:23:06.735Z,25.20
2023-02-07T04:25:35.538Z,27.40
2023-02-07T04:28:03.599Z,24.40
2023-02-07T04:30:33.429Z,26.40
2023-02-07T04:33:01.412Z,31.70
2023-02-07T04:35:29.357Z,26.20
2023-02-07T04:37:57.475Z,26.30
2023-02-07T04:40:25.535Z,25.80
2023-02-07T04:42:53.524Z,27.70
